createdAt,value
2022-12-08T00:01:53.084Z,3.37
2022-12-08T00:04:25.344Z,3.33
2022-12-08T00:07:15.591Z,3.26
2022-12-08T00:09:47.430Z,3.24
2022-12-08T00:12:19.341Z,3.24
2022-12-08T00:14:51.268Z,3.24
2022-12-08T00:17:23.188Z,3.25
2022-12-08T00:19:55.179Z,3.24
2022-12-08T00:22:29.203Z,3.27
2022-12-08T00:25:01.406Z,3.26
2022-12-08T00:27:33.624Z,3.27
2022-12-08T00:30:07.491Z,3.25
2022-12-08T00:32:39.452Z,3.26
2022-12-08T00:35:11.397Z,3.29
2022-12-08T00:37:43.321Z,3.24
2022-12-08T00:40:15.560Z,3.27
2022-12-08T00:42:47.581Z,3.21
2022-12-08T00:45:19.834Z,3.08
2022-12-08T00:47:51.775Z,3.20
2022-12-08T00:50:23.776Z,3.25
2022-12-08T00:52:55.739Z,3.21
2022-12-08T00:55:27.741Z,3.21
2022-12-08T00:57:59.656Z,3.26
2022-12-08T01:00:31.607Z,3.24
2022-12-08T01:03:03.801Z,3.31
2022-12-08T01:05:35.792Z,3.30
2022-12-08T01:08:09.084Z,3.26
2022-12-08T01:10:41.114Z,3.30
2022-12-08T01:13:13.046Z,3.30
2022-12-08T01:15:44.973Z,3.33
2022-12-08T01:18:16.888Z,3.40
2022-12-08T01:20:48.933Z,3.40
2022-12-08T01:23:21.188Z,3.38
2022-12-08T01:25:53.193Z,3.62
2022-12-08T01:28:25.128Z,3.61
2022-12-08T01:30:58.891Z,3.71
2022-12-08T01:33:32.055Z,3.76
2022-12-08T01:36:05.573Z,3.69
2022-12-08T01:38:37.479Z,3.67
2022-12-08T01:41:14.843Z,3.68
2022-12-08T01:44:08.297Z,3.78
2022-12-08T01:46:43.962Z,3.78
2022-12-08T01:49:19.376Z,3.82
2022-12-08T01:52:20.071Z,3.88
2022-12-08T01:55:05.968Z,3.81
2022-12-08T01:57:48.109Z,3.82
2022-12-08T02:00:22.405Z,3.86
2022-12-08T02:03:14.120Z,3.88
2022-12-08T02:05:47.317Z,3.91
2022-12-08T02:08:20.255Z,3.89
2022-12-08T02:10:53.197Z,3.92
2022-12-08T02:13:25.720Z,3.75
2022-12-08T02:16:45.268Z,3.81
2022-12-08T02:20:15.746Z,3.79
2022-12-08T02:23:22.509Z,3.43
2022-12-08T02:26:40.659Z,3.38
2022-12-08T02:29:51.229Z,3.43
2022-12-08T02:33:00.838Z,3.53
2022-12-08T02:36:15.975Z,3.58
2022-12-08T02:39:04.005Z,3.59
2022-12-08T02:42:02.808Z,3.63
2022-12-08T02:44:50.473Z,3.68
2022-12-08T02:47:24.724Z,3.71
2022-12-08T02:49:58.188Z,3.80
2022-12-08T02:52:30.028Z,3.87
2022-12-08T02:55:19.072Z,3.80
2022-12-08T02:58:04.297Z,3.69
2022-12-08T03:01:20.314Z,3.76
2022-12-08T03:04:24.971Z,3.81
2022-12-08T03:07:09.850Z,3.86
2022-12-08T03:09:55.612Z,3.83
2022-12-08T03:12:44.728Z,3.90
2022-12-08T03:15:20.610Z,3.89
2022-12-08T03:17:58.261Z,3.95
2022-12-08T03:20:32.197Z,3.88
2022-12-08T03:23:09.237Z,3.94
2022-12-08T03:25:52.525Z,3.89
2022-12-08T03:28:24.985Z,3.88
2022-12-08T03:31:03.588Z,3.85
2022-12-08T03:33:41.913Z,3.79
2022-12-08T03:36:14.562Z,3.84
2022-12-08T03:38:47.179Z,3.80
2022-12-08T03:41:20.593Z,3.82
2022-12-08T03:43:59.590Z,3.85
2022-12-08T03:46:31.997Z,3.94
2022-12-08T03:49:04.061Z,4.01
2022-12-08T03:51:35.990Z,3.86
2022-12-08T03:54:07.951Z,3.81
2022-12-08T03:56:40.282Z,3.87
2022-12-08T03:59:12.315Z,3.87
2022-12-08T04:01:44.352Z,3.80
2022-12-08T04:04:16.339Z,3.80
2022-12-08T04:06:48.512Z,3.65
2022-12-08T04:09:20.496Z,3.64
2022-12-08T04:11:52.459Z,3.65
2022-12-08T04:14:24.400Z,3.61
2022-12-08T04:16:56.365Z,3.71
2022-12-08T04:19:28.374Z,3.75
2022-12-08T04:22:00.306Z,3.67
2022-12-08T04:24:32.258Z,3.75
2022-12-08T04:27:04.296Z,3.51
2022-12-08T04:29:36.274Z,3.58
2022-12-08T04:32:08.186Z,3.64
2022-12-08T04:34:40.131Z,3.68
2022-12-08T04:37:12.034Z,3.69
2022-12-08T04:39:43.976Z,3.76
2022-12-08T04:42:15.893Z,3.75
2022-12-08T04:44:47.906Z,3.77
2022-12-08T04:47:21.008Z,3.76
2022-12-08T04:49:53.135Z,3.72
2022-12-08T04:52:25.088Z,3.67
2022-12-08T04:54:57.141Z,3.77
2022-12-08T04:57:29.124Z,3.80
2022-12-08T05:00:01.213Z,3.77
2022-12-08T05:02:33.255Z,3.80
2022-12-08T05:05:06.319Z,3.84
2022-12-08T05:07:38.416Z,3.81
2022-12-08T05:10:10.518Z,3.80
2022-12-08T05:12:42.436Z,3.77
2022-12-08T05:15:14.475Z,3.83
2022-12-08T05:17:46.446Z,3.85
2022-12-08T05:20:18.585Z,3.75
2022-12-08T05:22:50.632Z,3.73
2022-12-08T05:25:22.555Z,3.75
2022-12-08T05:28:06.191Z,3.82
2022-12-08T05:30:46.567Z,3.79
2022-12-08T05:33:18.701Z,3.88
2022-12-08T05:35:50.707Z,3.83
2022-12-08T05:38:22.640Z,3.89
2022-12-08T05:40:54.563Z,3.93
2022-12-08T05:43:27.240Z,3.90
2022-12-08T05:45:59.594Z,3.92
2022-12-08T05:48:31.576Z,3.96
2022-12-08T05:51:04.432Z,3.86
2022-12-08T05:53:36.388Z,3.87
2022-12-08T05:56:08.306Z,3.93
2022-12-08T05:58:43.114Z,3.96
2022-12-08T06:01:31.120Z,3.95
2022-12-08T06:04:05.106Z,3.92
2022-12-08T06:06:38.593Z,3.99
2022-12-08T06:09:10.968Z,3.99
2022-12-08T06:11:43.196Z,3.95
2022-12-08T06:14:15.141Z,3.90
2022-12-08T06:16:47.192Z,4.02
2022-12-08T06:19:19.484Z,4.03
2022-12-08T06:21:51.422Z,3.99
2022-12-08T06:24:23.460Z,4.04
2022-12-08T06:26:55.388Z,4.00
2022-12-08T06:29:27.311Z,4.07
2022-12-08T06:31:59.333Z,4.03
2022-12-08T06:34:31.338Z,4.09
2022-12-08T06:37:03.319Z,4.06
2022-12-08T06:39:35.375Z,4.06
2022-12-08T06:42:26.294Z,4.07
2022-12-08T06:44:58.560Z,4.06
2022-12-08T06:47:30.704Z,3.74
2022-12-08T06:50:03.313Z,3.73
2022-12-08T06:52:40.888Z,3.72
2022-12-08T06:55:42.444Z,3.68
2022-12-08T06:58:09.817Z,3.75
2022-12-08T07:00:42.449Z,3.82
2022-12-08T07:03:14.875Z,3.75
2022-12-08T07:05:46.802Z,3.61
2022-12-08T07:08:18.954Z,3.66
2022-12-08T07:10:50.952Z,3.48
2022-12-08T07:13:22.977Z,3.60
2022-12-08T07:15:54.938Z,3.68
2022-12-08T07:18:26.977Z,3.78
2022-12-08T07:21:07.749Z,3.90
2022-12-08T07:23:39.908Z,3.92
2022-12-08T07:26:12.871Z,3.93
2022-12-08T07:28:44.932Z,3.97
2022-12-08T07:31:25.113Z,4.07
2022-12-08T07:33:57.756Z,3.98
2022-12-08T07:36:29.992Z,3.97
2022-12-08T07:39:02.048Z,3.96
2022-12-08T07:41:34.379Z,3.88
2022-12-08T07:44:06.373Z,3.91
2022-12-08T07:46:38.420Z,3.85
2022-12-08T07:49:10.520Z,3.73
2022-12-08T07:51:42.587Z,3.70
2022-12-08T07:54:14.571Z,3.74
2022-12-08T07:56:46.551Z,3.75
2022-12-08T07:59:19.458Z,3.79
2022-12-08T08:02:11.732Z,3.83
2022-12-08T08:04:43.429Z,3.74
2022-12-08T08:07:15.468Z,3.70
2022-12-08T08:09:47.461Z,3.68
2022-12-08T08:12:34.692Z,3.70
2022-12-08T08:15:09.361Z,3.66
2022-12-08T08:17:41.508Z,3.68
2022-12-08T08:20:14.248Z,3.76
2022-12-08T08:22:50.319Z,3.81
2022-12-08T08:25:25.493Z,3.82
2022-12-08T08:27:57.479Z,3.83
2022-12-08T08:30:29.726Z,3.88
2022-12-08T08:33:01.932Z,3.92
2022-12-08T08:35:35.073Z,3.95
2022-12-08T08:38:07.077Z,3.93
2022-12-08T08:40:39.228Z,3.87
2022-12-08T08:43:34.358Z,3.84
2022-12-08T08:46:10.349Z,3.80
2022-12-08T08:48:42.480Z,3.81
2022-12-08T08:51:15.337Z,3.76
2022-12-08T08:53:47.366Z,3.86
2022-12-08T08:56:19.847Z,3.86
2022-12-08T08:58:53.847Z,3.92
2022-12-08T09:01:28.525Z,3.99
2022-12-08T09:04:01.525Z,4.06
2022-12-08T09:06:33.638Z,4.12
2022-12-08T09:09:05.856Z,4.09
2022-12-08T09:11:38.134Z,4.08
2022-12-08T09:14:14.676Z,4.08
2022-12-08T09:16:46.714Z,4.08
2022-12-08T09:19:18.710Z,4.08
2022-12-08T09:21:50.678Z,4.13
2022-12-08T09:24:23.251Z,4.17
2022-12-08T09:26:55.212Z,4.17
2022-12-08T09:29:31.196Z,4.25
2022-12-08T09:32:07.429Z,4.19
2022-12-08T09:34:39.429Z,4.26
2022-12-08T09:37:11.417Z,4.22
2022-12-08T09:39:43.350Z,4.13
2022-12-08T09:42:30.921Z,4.18
2022-12-08T09:45:09.855Z,4.17
2022-12-08T09:48:15.093Z,4.24
2022-12-08T09:50:58.523Z,4.27
2022-12-08T09:53:50.726Z,4.22
2022-12-08T09:56:30.008Z,4.19
2022-12-08T09:59:41.735Z,4.28
2022-12-08T10:02:25.515Z,4.38
2022-12-08T10:04:59.150Z,4.47
2022-12-08T10:07:48.886Z,4.43
2022-12-08T10:10:31.545Z,4.37
2022-12-08T10:13:38.437Z,4.36
2022-12-08T10:16:30.060Z,4.40
2022-12-08T10:19:16.314Z,4.45
2022-12-08T10:21:50.908Z,4.45
2022-12-08T10:24:29.345Z,4.41
2022-12-08T10:27:02.586Z,4.45
2022-12-08T10:29:35.036Z,4.58
2022-12-08T10:32:18.362Z,4.50
2022-12-08T10:35:12.172Z,4.66
2022-12-08T10:37:59.911Z,4.93
2022-12-08T10:40:42.198Z,4.89
2022-12-08T10:43:25.983Z,4.95
2022-12-08T10:46:15.052Z,4.98
2022-12-08T10:49:11.768Z,5.10
2022-12-08T10:51:43.939Z,5.26
2022-12-08T10:54:37.296Z,5.26
2022-12-08T10:57:22.184Z,5.21
2022-12-08T10:59:57.910Z,4.65
2022-12-08T11:02:29.968Z,4.73
2022-12-08T11:05:02.113Z,4.75
2022-12-08T11:07:34.306Z,4.85
2022-12-08T11:10:07.790Z,4.81
2022-12-08T11:12:44.377Z,4.80
2022-12-08T11:15:18.090Z,4.76
2022-12-08T11:18:07.147Z,4.83
2022-12-08T11:20:42.060Z,4.96
2022-12-08T11:23:24.972Z,5.08
2022-12-08T11:26:03.405Z,5.15
2022-12-08T11:28:35.620Z,5.15
2022-12-08T11:31:34.177Z,5.08
2022-12-08T11:34:07.005Z,5.04
2022-12-08T11:36:39.710Z,5.04
2022-12-08T11:39:13.318Z,5.12
2022-12-08T11:41:46.622Z,5.13
2022-12-08T11:44:52.856Z,4.97
2022-12-08T11:47:49.035Z,5.03
2022-12-08T11:50:50.706Z,5.08
2022-12-08T11:53:43.825Z,5.15
2022-12-08T11:56:29.988Z,5.21
2022-12-08T11:59:39.630Z,5.11
2022-12-08T12:02:22.221Z,5.02
2022-12-08T12:05:23.583Z,4.88
2022-12-08T12:08:39.057Z,4.98
2022-12-08T12:12:00.289Z,5.10
2022-12-08T12:14:53.215Z,5.10
2022-12-08T12:17:33.883Z,5.07
2022-12-08T12:20:23.635Z,5.16
2022-12-08T12:23:09.244Z,5.23
2022-12-08T12:25:51.511Z,5.25
2022-12-08T12:28:40.344Z,5.29
2022-12-08T12:31:17.171Z,5.37
2022-12-08T12:33:51.403Z,5.25
2022-12-08T12:36:25.572Z,5.06
2022-12-08T12:39:08.634Z,5.10
2022-12-08T12:41:48.645Z,5.11
2022-12-08T12:44:29.250Z,5.13
2022-12-08T12:47:07.295Z,5.12
2022-12-08T12:49:39.273Z,5.07
2022-12-08T12:52:18.788Z,5.08
2022-12-08T12:54:50.646Z,5.12
2022-12-08T12:57:25.976Z,5.18
2022-12-08T13:00:00.942Z,5.17
2022-12-08T13:02:40.123Z,5.14
2022-12-08T13:05:34.269Z,5.12
2022-12-08T13:08:28.817Z,5.07
2022-12-08T13:11:08.035Z,5.09
2022-12-08T13:13:57.382Z,5.08
2022-12-08T13:16:35.073Z,5.07
2022-12-08T13:19:14.931Z,5.04
2022-12-08T13:21:46.992Z,5.02
2022-12-08T13:24:32.443Z,5.04
2022-12-08T13:27:04.364Z,5.00
2022-12-08T13:29:37.901Z,4.99
2022-12-08T13:32:09.917Z,4.95
2022-12-08T13:34:53.556Z,4.94
2022-12-08T13:37:53.898Z,4.97
2022-12-08T13:40:30.303Z,4.92
2022-12-08T13:43:47.693Z,4.93
2022-12-08T13:47:17.285Z,4.89
2022-12-08T13:54:45.772Z,4.86
2022-12-08T13:59:20.639Z,4.96
2022-12-08T14:01:52.711Z,4.98
2022-12-08T14:04:54.424Z,5.11
2022-12-08T14:07:19.537Z,5.19
2022-12-08T14:09:52.833Z,5.30
2022-12-08T14:12:30.788Z,5.44
2022-12-08T14:15:08.004Z,5.56
2022-12-08T14:17:41.475Z,5.81
2022-12-08T14:20:31.498Z,5.86
2022-12-08T14:23:08.245Z,5.77
2022-12-08T14:25:47.998Z,5.79
2022-12-08T14:28:21.783Z,5.56
2022-12-08T14:30:56.343Z,5.48
2022-12-08T14:33:28.380Z,5.41
2022-12-08T14:36:01.167Z,5.44
2022-12-08T14:38:33.277Z,5.45
2022-12-08T14:41:08.791Z,5.49
2022-12-08T14:43:41.092Z,5.52
2022-12-08T14:46:23.534Z,5.43
2022-12-08T14:48:57.189Z,5.33
2022-12-08T14:51:33.527Z,5.23
2022-12-08T14:54:14.146Z,5.15
2022-12-08T14:56:53.311Z,5.00
2022-12-08T14:59:32.836Z,4.92
2022-12-08T15:02:16.245Z,4.79
2022-12-08T15:04:57.262Z,4.73
2022-12-08T15:07:35.382Z,4.69
2022-12-08T15:10:26.450Z,4.64
2022-12-08T15:13:09.161Z,4.58
2022-12-08T15:15:57.112Z,4.54
2022-12-08T15:18:39.334Z,4.48
2022-12-08T15:21:15.046Z,4.39
2022-12-08T15:23:50.578Z,4.31
2022-12-08T15:26:26.072Z,4.24
2022-12-08T15:28:58.064Z,4.19
2022-12-08T15:31:30.118Z,4.15
2022-12-08T15:34:02.108Z,4.12
2022-12-08T15:36:34.141Z,4.10
2022-12-08T15:39:37.323Z,4.01
2022-12-08T15:42:13.293Z,3.97
2022-12-08T15:44:45.329Z,3.96
2022-12-08T15:47:23.253Z,3.97
2022-12-08T15:49:55.300Z,3.94
2022-12-08T15:52:27.298Z,3.91
2022-12-08T15:54:59.315Z,3.87
2022-12-08T16:00:52.647Z,3.74
2022-12-08T16:09:18.083Z,3.59
2022-12-08T16:12:10.300Z,3.59
2022-12-08T16:17:37.366Z,3.53
2022-12-08T16:20:15.440Z,3.52
2022-12-08T16:23:03.662Z,3.52
2022-12-08T16:26:08.960Z,3.49
2022-12-08T16:28:53.422Z,3.47
2022-12-08T16:31:23.835Z,3.39
2022-12-08T16:33:55.859Z,3.39
2022-12-08T16:36:27.900Z,3.35
2022-12-08T16:38:59.919Z,3.34
2022-12-08T16:41:50.227Z,3.33
2022-12-08T16:44:22.109Z,3.27
2022-12-08T16:46:54.122Z,3.24
2022-12-08T16:49:26.065Z,3.21
2022-12-08T16:51:58.453Z,3.21
2022-12-08T16:54:30.441Z,3.17
2022-12-08T16:57:02.456Z,3.18
2022-12-08T16:59:34.476Z,3.15
2022-12-08T17:02:06.695Z,3.14
2022-12-08T17:04:38.730Z,3.17
2022-12-08T17:07:10.740Z,3.11
2022-12-08T17:09:43.243Z,3.11
2022-12-08T17:12:15.253Z,3.09
2022-12-08T17:14:47.326Z,3.11
2022-12-08T17:17:19.277Z,3.13
2022-12-08T17:19:51.509Z,3.17
2022-12-08T17:22:23.562Z,3.18
2022-12-08T17:24:55.482Z,3.16
2022-12-08T17:27:28.056Z,3.10
2022-12-08T17:30:00.388Z,3.16
2022-12-08T17:32:32.540Z,3.24
2022-12-08T17:35:05.474Z,3.32
2022-12-08T17:37:37.705Z,3.23
2022-12-08T17:40:10.205Z,3.23
2022-12-08T17:42:42.506Z,3.26
2022-12-08T17:45:14.514Z,3.24
2022-12-08T17:47:46.632Z,3.26
2022-12-08T17:50:18.744Z,3.19
2022-12-08T17:52:51.585Z,3.23
2022-12-08T17:55:23.519Z,3.15
2022-12-08T17:57:55.519Z,3.17
2022-12-08T18:00:27.681Z,3.13
2022-12-08T18:02:59.825Z,3.15
2022-12-08T18:05:31.799Z,3.12
2022-12-08T18:08:03.957Z,3.12
2022-12-08T18:10:36.315Z,3.05
2022-12-08T18:13:08.559Z,2.99
2022-12-08T18:15:40.586Z,2.95
2022-12-08T18:18:12.563Z,3.01
2022-12-08T18:20:44.592Z,2.94
2022-12-08T18:23:17.643Z,2.90
2022-12-08T18:25:49.643Z,2.83
2022-12-08T18:28:21.631Z,2.82
2022-12-08T18:30:53.717Z,2.85
2022-12-08T18:33:26.212Z,2.83
2022-12-08T18:35:58.186Z,2.82
2022-12-08T18:38:30.141Z,2.76
2022-12-08T18:41:11.642Z,2.77
2022-12-08T18:43:43.686Z,2.65
2022-12-08T18:46:15.855Z,2.60
2022-12-08T18:48:50.106Z,2.57
2022-12-08T18:51:24.392Z,2.51
2022-12-08T18:53:58.375Z,2.50
2022-12-08T18:56:33.719Z,2.44
2022-12-08T18:59:10.221Z,2.43
2022-12-08T19:01:42.562Z,2.43
2022-12-08T19:04:31.839Z,2.41
2022-12-08T19:07:06.539Z,2.40
2022-12-08T19:09:39.526Z,2.34
2022-12-08T19:12:13.130Z,2.36
2022-12-08T19:14:45.195Z,2.32
2022-12-08T19:17:17.261Z,2.27
2022-12-08T19:19:49.338Z,2.28
2022-12-08T19:22:21.309Z,2.29
2022-12-08T19:24:53.303Z,2.32
2022-12-08T19:27:25.227Z,2.32
2022-12-08T19:29:57.257Z,2.33
2022-12-08T19:32:30.137Z,2.31
2022-12-08T19:35:07.147Z,2.32
2022-12-08T19:37:39.173Z,2.35
2022-12-08T19:40:33.067Z,2.38
2022-12-08T19:43:23.498Z,2.39
2022-12-08T19:45:55.580Z,2.44
2022-12-08T19:48:28.025Z,2.49
2022-12-08T19:51:00.217Z,2.49
2022-12-08T19:53:32.303Z,2.54
2022-12-08T19:56:04.860Z,2.53
2022-12-08T19:58:36.837Z,2.56
2022-12-08T20:01:08.827Z,2.61
2022-12-08T20:03:40.972Z,2.63
2022-12-08T20:06:18.466Z,2.69
2022-12-08T20:08:50.998Z,2.66
2022-12-08T20:11:22.991Z,2.59
2022-12-08T20:13:55.096Z,2.66
2022-12-08T20:16:27.199Z,2.68
2022-12-08T20:18:59.858Z,2.70
2022-12-08T20:21:31.902Z,2.72
2022-12-08T20:24:04.730Z,2.76
2022-12-08T20:26:36.894Z,2.80
2022-12-08T20:29:09.257Z,2.86
2022-12-08T20:31:41.312Z,2.91
2022-12-08T20:34:19.356Z,2.95
2022-12-08T20:36:51.407Z,2.89
2022-12-08T20:39:23.424Z,2.87
2022-12-08T20:41:56.122Z,2.83
2022-12-08T20:44:30.970Z,2.91
2022-12-08T20:47:03.116Z,2.95
2022-12-08T20:49:35.300Z,2.94
2022-12-08T20:52:08.569Z,2.94
2022-12-08T20:54:40.575Z,2.89
2022-12-08T20:57:12.650Z,2.77
2022-12-08T20:59:44.709Z,2.79
2022-12-08T21:02:16.863Z,2.80
2022-12-08T21:04:49.296Z,2.78
2022-12-08T21:07:21.907Z,2.81
2022-12-08T21:09:54.796Z,2.83
2022-12-08T21:12:26.929Z,2.76
2022-12-08T21:14:59.022Z,2.80
2022-12-08T21:17:31.087Z,2.82
2022-12-08T21:20:04.540Z,2.86
2022-12-08T21:22:37.191Z,2.94
2022-12-08T21:25:09.600Z,2.93
2022-12-08T21:27:41.750Z,2.96
2022-12-08T21:30:14.759Z,2.91
2022-12-08T21:32:46.962Z,2.92
2022-12-08T21:35:18.992Z,2.89
2022-12-08T21:37:51.681Z,2.95
2022-12-08T21:40:23.828Z,2.95
2022-12-08T21:42:56.046Z,2.94
2022-12-08T21:45:28.330Z,2.95
2022-12-08T21:48:04.371Z,2.99
2022-12-08T21:50:39.381Z,3.01
2022-12-08T21:53:12.572Z,3.05
2022-12-08T21:55:44.739Z,3.08
2022-12-08T21:58:16.721Z,3.13
2022-12-08T22:00:48.914Z,3.03
2022-12-08T22:03:21.035Z,2.95
2022-12-08T22:05:53.429Z,2.98
2022-12-08T22:08:25.488Z,2.99
2022-12-08T22:10:57.638Z,2.97
2022-12-08T22:13:29.707Z,2.99
2022-12-08T22:16:08.073Z,2.95
2022-12-08T22:18:40.286Z,2.86
2022-12-08T22:21:16.782Z,2.87
2022-12-08T22:23:49.440Z,2.91
2022-12-08T22:26:21.483Z,2.90
2022-12-08T22:28:53.561Z,2.83
2022-12-08T22:31:26.267Z,2.86
2022-12-08T22:34:00.005Z,2.65
2022-12-08T22:36:32.374Z,2.72
2022-12-08T22:39:05.281Z,2.75
2022-12-08T22:41:37.330Z,2.81
2022-12-08T22:44:09.843Z,2.78
2022-12-08T22:46:42.142Z,2.79
2022-12-08T22:49:14.228Z,2.81
2022-12-08T22:51:46.295Z,2.78
2022-12-08T22:54:19.052Z,2.80
2022-12-08T22:56:51.100Z,2.79
2022-12-08T22:59:23.226Z,2.88
2022-12-08T23:01:55.391Z,2.94
2022-12-08T23:04:30.511Z,2.97
2022-12-08T23:07:03.432Z,2.99
2022-12-08T23:09:35.435Z,2.94
2022-12-08T23:12:07.928Z,2.96
2022-12-08T23:14:39.949Z,2.96
2022-12-08T23:17:11.941Z,3.02
2022-12-08T23:19:44.045Z,3.03
2022-12-08T23:22:16.364Z,3.06
2022-12-08T23:24:48.581Z,3.01
2022-12-08T23:27:20.547Z,3.12
2022-12-08T23:29:52.769Z,3.17
2022-12-08T23:32:24.910Z,3.15
2022-12-08T23:34:57.185Z,3.17
2022-12-08T23:37:29.718Z,3.18
2022-12-08T23:40:01.954Z,3.13
2022-12-08T23:42:34.246Z,3.14
2022-12-08T23:45:08.526Z,3.19
2022-12-08T23:47:40.598Z,3.12
2022-12-08T23:50:12.949Z,3.12
2022-12-08T23:52:45.452Z,3.11
2022-12-08T23:55:17.516Z,3.19
2022-12-08T23:57:49.573Z,3.09
